createdAt,value
2023-05-21T00:06:22.580Z,24
2023-05-21T00:36:31.210Z,27
2023-05-21T01:06:39.393Z,27
2023-05-21T01:36:49.250Z,27
2023-05-21T02:06:59.207Z,28
2023-05-21T02:37:09.574Z,30
2023-05-21T03:07:20.312Z,30
2023-05-21T04:07:39.391Z,34
2023-05-21T04:37:50.513Z,36
2023-05-21T05:08:06.923Z,32
2023-05-21T05:38:33.252Z,30
2023-05-21T06:08:48.060Z,30
2023-05-21T06:39:11.440Z,29
2023-05-21T07:09:29.355Z,29
2023-05-21T07:39:56.321Z,27
2023-05-21T08:10:14.987Z,23
2023-05-21T08:40:34.084Z,21
2023-05-21T09:10:51.674Z,21
2023-05-21T10:11:32.570Z,20
2023-05-21T10:41:49.193Z,24
2023-05-21T11:11:51.852Z,20
2023-05-21T12:12:20.531Z,18
2023-05-21T12:42:28.287Z,18
2023-05-21T13:12:45.902Z,18
2023-05-21T13:43:06.167Z,17
2023-05-21T14:13:18.423Z,17
2023-05-21T14:43:28.194Z,16
2023-05-21T15:13:39.054Z,19
2023-05-21T16:14:01.281Z,19
2023-05-21T16:44:09.295Z,19
2023-05-21T17:14:16.921Z,21
2023-05-21T17:44:26.372Z,19
2023-05-21T18:14:33.882Z,19
2023-05-21T18:44:40.017Z,19
2023-05-21T19:14:47.633Z,21
2023-05-21T19:44:51.954Z,22
2023-05-21T20:14:59.495Z,22
2023-05-21T20:45:06.625Z,366
2023-05-21T21:15:20.829Z,127
2023-05-21T21:45:30.190Z,680
2023-05-21T22:15:38.148Z,609
2023-05-21T22:45:48.916Z,690
2023-05-21T23:15:57.805Z,954
2023-05-21T23:46:07.558Z,888
